sensor_id;sensor_type;location;lat;lon;timestamp;pressure;altitude;pressure_sealevel;temperature;humidity
69411;BME280;56604;48.652;9.194;2023-05-12T00:01:10;95937.06;;;10.21;95.91
69411;BME280;56604;48.652;9.194;2023-05-12T00:03:37;95937.69;;;10.28;95.85
69411;BME280;56604;48.652;9.194;2023-05-12T00:06:02;95922.16;;;10.27;95.94
69411;BME280;56604;48.652;9.194;2023-05-12T00:08:28;95930.78;;;10.22;96.98
69411;BME280;56604;48.652;9.194;2023-05-12T00:10:55;95926.50;;;10.11;96.52
69411;BME280;56604;48.652;9.194;2023-05-12T00:13:20;95924.72;;;10.17;97.45
69411;BME280;56604;48.652;9.194;2023-05-12T00:15:48;95929.97;;;10.17;97.17
69411;BME280;56604;48.652;9.194;2023-05-12T00:18:13;95923.41;;;10.19;96.88
69411;BME280;56604;48.652;9.194;2023-05-12T00:20:39;95918.94;;;10.20;97.10
69411;BME280;56604;48.652;9.194;2023-05-12T00:23:04;95917.59;;;10.12;97.09
69411;BME280;56604;48.652;9.194;2023-05-12T00:25:29;95921.78;;;10.13;97.64
69411;BME280;56604;48.652;9.194;2023-05-12T00:27:54;95909.16;;;10.10;97.83
69411;BME280;56604;48.652;9.194;2023-05-12T00:30:20;95907.59;;;10.09;98.03
69411;BME280;56604;48.652;9.194;2023-05-12T00:32:45;95912.84;;;10.09;98.10
69411;BME280;56604;48.652;9.194;2023-05-12T00:35:10;95913.69;;;10.20;97.63
69411;BME280;56604;48.652;9.194;2023-05-12T00:37:36;95913.16;;;10.18;97.54
69411;BME280;56604;48.652;9.194;2023-05-12T00:40:02;95916.31;;;10.20;97.39
69411;BME280;56604;48.652;9.194;2023-05-12T00:42:27;95913.13;;;10.12;97.58
69411;BME280;56604;48.652;9.194;2023-05-12T00:44:52;95906.00;;;10.08;97.23
69411;BME280;56604;48.652;9.194;2023-05-12T00:47:18;95908.09;;;10.06;98.14
69411;BME280;56604;48.652;9.194;2023-05-12T00:49:45;95911.78;;;10.05;98.04
69411;BME280;56604;48.652;9.194;2023-05-12T00:52:10;95915.94;;;10.01;98.26
69411;BME280;56604;48.652;9.194;2023-05-12T00:54:36;95907.03;;;10.02;98.27
69411;BME280;56604;48.652;9.194;2023-05-12T00:57:02;95909.13;;;10.00;98.67
69411;BME280;56604;48.652;9.194;2023-05-12T00:59:28;95908.56;;;9.98;98.77
69411;BME280;56604;48.652;9.194;2023-05-12T01:01:54;95913.50;;;9.89;98.91
69411;BME280;56604;48.652;9.194;2023-05-12T01:04:20;95912.16;;;9.86;99.73
69411;BME280;56604;48.652;9.194;2023-05-12T01:06:58;95910.13;;;9.94;99.09
69411;BME280;56604;48.652;9.194;2023-05-12T01:09:26;95910.97;;;10.04;99.48
69411;BME280;56604;48.652;9.194;2023-05-12T01:11:52;95912.84;;;10.09;98.50
69411;BME280;56604;48.652;9.194;2023-05-12T01:14:17;95909.16;;;10.05;98.62
69411;BME280;56604;48.652;9.194;2023-05-12T01:16:51;95913.28;;;9.96;98.93
69411;BME280;56604;48.652;9.194;2023-05-12T01:22:01;95908.00;;;9.96;99.77
69411;BME280;56604;48.652;9.194;2023-05-12T01:24:28;95912.00;;;10.03;100.00
69411;BME280;56604;48.652;9.194;2023-05-12T01:26:54;95906.00;;;10.08;98.99
69411;BME280;56604;48.652;9.194;2023-05-12T01:29:20;95908.38;;;10.09;98.81
69411;BME280;56604;48.652;9.194;2023-05-12T01:31:47;95911.50;;;10.06;99.20
69411;BME280;56604;48.652;9.194;2023-05-12T01:34:15;95912.88;;;10.14;98.96
69411;BME280;56604;48.652;9.194;2023-05-12T01:36:40;95902.91;;;10.16;99.47
69411;BME280;56604;48.652;9.194;2023-05-12T01:39:05;95903.97;;;10.20;98.91
69411;BME280;56604;48.652;9.194;2023-05-12T01:41:30;95912.84;;;10.09;98.52
69411;BME280;56604;48.652;9.194;2023-05-12T01:43:56;95907.50;;;9.99;99.50
69411;BME280;56604;48.652;9.194;2023-05-12T01:46:21;95906.22;;;9.96;99.23
69411;BME280;56604;48.652;9.194;2023-05-12T01:48:46;95911.78;;;10.05;99.64
69411;BME280;56604;48.652;9.194;2023-05-12T01:51:12;95904.41;;;10.07;99.68
69411;BME280;56604;48.652;9.194;2023-05-12T01:53:37;95908.22;;;10.26;99.07
69411;BME280;56604;48.652;9.194;2023-05-12T01:56:02;95905.53;;;10.21;98.03
69411;BME280;56604;48.652;9.194;2023-05-12T01:58:27;95904.75;;;10.21;98.08
69411;BME280;56604;48.652;9.194;2023-05-12T02:00:53;95907.59;;;10.09;98.31
69411;BME280;56604;48.652;9.194;2023-05-12T02:03:18;95909.47;;;10.13;98.62
69411;BME280;56604;48.652;9.194;2023-05-12T02:05:44;95902.41;;;10.19;99.05
69411;BME280;56604;48.652;9.194;2023-05-12T02:08:09;95904.53;;;10.22;99.21
69411;BME280;56604;48.652;9.194;2023-05-12T02:10:34;95911.34;;;10.23;98.51
69411;BME280;56604;48.652;9.194;2023-05-12T02:13:00;95905.53;;;10.21;98.36
69411;BME280;56604;48.652;9.194;2023-05-12T02:15:25;95905.53;;;10.21;98.36
69411;BME280;56604;48.652;9.194;2023-05-12T02:17:50;95902.41;;;10.24;98.25
69411;BME280;56604;48.652;9.194;2023-05-12T02:20:18;95904.47;;;10.17;98.10
69411;BME280;56604;48.652;9.194;2023-05-12T02:22:43;95902.91;;;10.21;98.41
69411;BME280;56604;48.652;9.194;2023-05-12T02:25:09;95902.41;;;10.24;98.40
69411;BME280;56604;48.652;9.194;2023-05-12T02:27:34;95901.38;;;10.25;98.55
69411;BME280;56604;48.652;9.194;2023-05-12T02:29:59;95903.22;;;10.25;98.61
69411;BME280;56604;48.652;9.194;2023-05-12T02:32:24;95901.09;;;10.22;98.17
69411;BME280;56604;48.652;9.194;2023-05-12T02:34:52;95900.53;;;10.14;98.76
69411;BME280;56604;48.652;9.194;2023-05-12T02:37:18;95902.41;;;10.19;98.43
69411;BME280;56604;48.652;9.194;2023-05-12T02:39:43;95901.03;;;10.11;99.21
69411;BME280;56604;48.652;9.194;2023-05-12T02:42:08;95900.56;;;10.20;98.58
69411;BME280;56604;48.652;9.194;2023-05-12T02:44:33;95901.09;;;10.22;98.58
69411;BME280;56604;48.652;9.194;2023-05-12T02:46:59;95904.56;;;10.27;98.41
69411;BME280;56604;48.652;9.194;2023-05-12T02:49:24;95898.00;;;10.30;98.44
69411;BME280;56604;48.652;9.194;2023-05-12T02:51:49;95902.41;;;10.19;98.62
69411;BME280;56604;48.652;9.194;2023-05-12T02:54:15;95900.84;;;10.23;98.95
69411;BME280;56604;48.652;9.194;2023-05-12T02:56:40;95906.22;;;10.01;99.48
69411;BME280;56604;48.652;9.194;2023-05-12T02:59:05;95902.84;;;10.06;100.00
69411;BME280;56604;48.652;9.194;2023-05-12T03:01:30;95902.75;;;9.90;99.70
69411;BME280;56604;48.652;9.194;2023-05-12T03:03:56;95902.16;;;9.83;100.00
69411;BME280;56604;48.652;9.194;2023-05-12T03:06:21;95901.69;;;9.91;100.00
69411;BME280;56604;48.652;9.194;2023-05-12T03:08:46;95906.66;;;9.88;100.00
69411;BME280;56604;48.652;9.194;2023-05-12T03:11:12;95899.13;;;9.97;100.00
69411;BME280;56604;48.652;9.194;2023-05-12T03:13:37;95901.94;;;9.90;100.00
69411;BME280;56604;48.652;9.194;2023-05-12T03:16:02;95906.53;;;10.05;100.00
69411;BME280;56604;48.652;9.194;2023-05-12T03:18:28;95906.25;;;10.06;100.00
69411;BME280;56604;48.652;9.194;2023-05-12T03:20:53;95908.16;;;10.16;99.90
69411;BME280;56604;48.652;9.194;2023-05-12T03:23:19;95904.75;;;10.21;99.50
69411;BME280;56604;48.652;9.194;2023-05-12T03:25:44;95908.66;;;10.13;99.19
69411;BME280;56604;48.652;9.194;2023-05-12T03:28:09;95907.06;;;10.12;99.62
69411;BME280;56604;48.652;9.194;2023-05-12T03:30:35;95907.16;;;10.22;99.31
69411;BME280;56604;48.652;9.194;2023-05-12T03:33:00;95902.94;;;10.26;98.33
69411;BME280;56604;48.652;9.194;2023-05-12T03:35:26;95907.72;;;10.29;98.46
69411;BME280;56604;48.652;9.194;2023-05-12T03:37:51;95897.25;;;10.34;98.44
69411;BME280;56604;48.652;9.194;2023-05-12T03:40:16;95899.22;;;10.17;98.57
69411;BME280;56604;48.652;9.194;2023-05-12T03:42:43;95896.59;;;10.17;98.42
69411;BME280;56604;48.652;9.194;2023-05-12T03:45:09;95901.06;;;10.17;99.13
69411;BME280;56604;48.652;9.194;2023-05-12T03:47:35;95894.25;;;10.21;99.29
69411;BME280;56604;48.652;9.194;2023-05-12T03:50:00;95898.72;;;10.20;99.12
69411;BME280;56604;48.652;9.194;2023-05-12T03:52:25;95897.63;;;10.11;98.75
69411;BME280;56604;48.652;9.194;2023-05-12T03:54:51;95901.81;;;10.12;99.10
69411;BME280;56604;48.652;9.194;2023-05-12T03:57:16;95889.00;;;10.21;98.91
69411;BME280;56604;48.652;9.194;2023-05-12T03:59:42;95899.78;;;10.24;99.09
69411;BME280;56604;48.652;9.194;2023-05-12T04:02:07;95893.75;;;10.24;99.22
69411;BME280;56604;48.652;9.194;2023-05-12T04:04:36;95888.78;;;10.27;98.97
69411;BME280;56604;48.652;9.194;2023-05-12T04:07:01;95890.84;;;10.20;98.40
69411;BME280;56604;48.652;9.194;2023-05-12T04:09:26;95893.97;;;10.17;98.77
69411;BME280;56604;48.652;9.194;2023-05-12T04:11:52;95894.25;;;10.21;99.08
69411;BME280;56604;48.652;9.194;2023-05-12T04:14:17;95895.84;;;10.22;99.19
69411;BME280;56604;48.652;9.194;2023-05-12T04:16:43;95896.66;;;10.27;98.34
69411;BME280;56604;48.652;9.194;2023-05-12T04:19:08;95896.88;;;10.21;97.99
69411;BME280;56604;48.652;9.194;2023-05-12T04:21:34;95902.91;;;10.16;98.08
69411;BME280;56604;48.652;9.194;2023-05-12T04:23:59;95903.47;;;10.23;99.22
69411;BME280;56604;48.652;9.194;2023-05-12T04:26:25;95904.84;;;10.31;98.95
69411;BME280;56604;48.652;9.194;2023-05-12T04:28:51;95890.94;;;10.35;99.02
69411;BME280;56604;48.652;9.194;2023-05-12T04:31:16;95904.88;;;10.36;98.29
69411;BME280;56604;48.652;9.194;2023-05-12T04:33:41;95909.88;;;10.38;98.14
69411;BME280;56604;48.652;9.194;2023-05-12T04:36:07;95909.75;;;10.17;99.28
69411;BME280;56604;48.652;9.194;2023-05-12T04:38:32;95915.63;;;10.34;99.36
69411;BME280;56604;48.652;9.194;2023-05-12T04:40:58;95908.81;;;10.39;99.00
69411;BME280;56604;48.652;9.194;2023-05-12T04:43:24;95914.84;;;10.34;98.66
69411;BME280;56604;48.652;9.194;2023-05-12T04:45:50;95908.13;;;10.53;97.82
69411;BME280;56604;48.652;9.194;2023-05-12T04:48:15;95912.56;;;10.53;97.20
69411;BME280;56604;48.652;9.194;2023-05-12T04:50:41;95909.94;;;10.48;96.94
69411;BME280;56604;48.652;9.194;2023-05-12T04:53:06;95912.53;;;10.43;96.57
69411;BME280;56604;48.652;9.194;2023-05-12T04:55:32;95917.81;;;10.53;95.86
69411;BME280;56604;48.652;9.194;2023-05-12T04:57:57;95918.03;;;10.41;97.52
69411;BME280;56604;48.652;9.194;2023-05-12T05:00:22;95923.31;;;10.46;97.40
69411;BME280;56604;48.652;9.194;2023-05-12T05:02:47;95927.53;;;10.47;98.06
69411;BME280;56604;48.652;9.194;2023-05-12T05:05:13;95916.50;;;10.55;97.36
69411;BME280;56604;48.652;9.194;2023-05-12T05:07:38;95919.97;;;10.61;96.72
69411;BME280;56604;48.652;9.194;2023-05-12T05:10:04;95919.44;;;10.64;96.73
69411;BME280;56604;48.652;9.194;2023-05-12T05:12:30;95923.13;;;10.63;97.22
69411;BME280;56604;48.652;9.194;2023-05-12T05:14:55;95922.38;;;10.73;96.89
69411;BME280;56604;48.652;9.194;2023-05-12T05:17:20;95929.75;;;10.76;96.13
69411;BME280;56604;48.652;9.194;2023-05-12T05:19:46;95920.06;;;10.82;96.56
69411;BME280;56604;48.652;9.194;2023-05-12T05:22:11;95922.72;;;10.97;95.00
69411;BME280;56604;48.652;9.194;2023-05-12T05:24:36;95918.50;;;10.91;95.41
69411;BME280;56604;48.652;9.194;2023-05-12T05:27:02;95920.31;;;10.85;94.16
69411;BME280;56604;48.652;9.194;2023-05-12T05:29:27;95931.69;;;10.96;93.76
69411;BME280;56604;48.652;9.194;2023-05-12T05:31:53;95926.88;;;10.83;92.61
69411;BME280;56604;48.652;9.194;2023-05-12T05:34:18;95932.47;;;10.96;93.17
69411;BME280;56604;48.652;9.194;2023-05-12T05:36:44;95932.16;;;10.93;94.03
69411;BME280;56604;48.652;9.194;2023-05-12T05:39:09;95944.81;;;10.91;93.64
69411;BME280;56604;48.652;9.194;2023-05-12T05:41:35;95949.03;;;10.97;92.89
69411;BME280;56604;48.652;9.194;2023-05-12T05:44:00;95948.44;;;10.79;93.54
69411;BME280;56604;48.652;9.194;2023-05-12T05:46:25;95944.75;;;10.80;92.82
69411;BME280;56604;48.652;9.194;2023-05-12T05:48:51;95943.75;;;10.97;92.76
69411;BME280;56604;48.652;9.194;2023-05-12T05:51:16;95946.34;;;10.82;92.55
69411;BME280;56604;48.652;9.194;2023-05-12T05:53:41;95942.72;;;11.03;92.51
69411;BME280;56604;48.652;9.194;2023-05-12T05:56:07;95945.91;;;11.05;92.30
69411;BME280;56604;48.652;9.194;2023-05-12T05:58:32;95944.56;;;10.97;91.05
69411;BME280;56604;48.652;9.194;2023-05-12T06:00:57;95943.28;;;11.05;90.85
69411;BME280;56604;48.652;9.194;2023-05-12T06:03:24;95940.66;;;11.15;90.79
69411;BME280;56604;48.652;9.194;2023-05-12T06:05:49;95947.00;;;11.30;90.48
69411;BME280;56604;48.652;9.194;2023-05-12T06:08:15;95945.94;;;11.20;90.63
69411;BME280;56604;48.652;9.194;2023-05-12T06:10:40;95946.97;;;11.14;91.19
69411;BME280;56604;48.652;9.194;2023-05-12T06:13:06;95953.84;;;11.31;89.51
69411;BME280;56604;48.652;9.194;2023-05-12T06:15:32;95953.84;;;11.31;88.23
69411;BME280;56604;48.652;9.194;2023-05-12T06:17:57;95959.94;;;11.41;90.40
69411;BME280;56604;48.652;9.194;2023-05-12T06:20:22;95959.16;;;11.51;88.12
69411;BME280;56604;48.652;9.194;2023-05-12T06:22:49;95958.38;;;11.56;87.02
69411;BME280;56604;48.652;9.194;2023-05-12T06:25:14;95960.72;;;11.47;87.58
69411;BME280;56604;48.652;9.194;2023-05-12T06:27:39;95967.03;;;11.46;88.79
69411;BME280;56604;48.652;9.194;2023-05-12T06:30:05;95964.41;;;11.66;87.79
69411;BME280;56604;48.652;9.194;2023-05-12T06:32:31;95956.59;;;11.87;87.71
69411;BME280;56604;48.652;9.194;2023-05-12T06:34:57;95963.94;;;12.05;87.24
69411;BME280;56604;48.652;9.194;2023-05-12T06:37:22;95967.38;;;11.90;85.09
69411;BME280;56604;48.652;9.194;2023-05-12T06:39:47;95971.84;;;11.90;85.65
69411;BME280;56604;48.652;9.194;2023-05-12T06:42:12;95963.38;;;11.78;85.91
69411;BME280;56604;48.652;9.194;2023-05-12T06:44:38;95963.94;;;11.95;86.38
69411;BME280;56604;48.652;9.194;2023-05-12T06:47:03;95966.03;;;12.03;87.29
69411;BME280;56604;48.652;9.194;2023-05-12T06:49:29;95969.47;;;12.24;85.64
69411;BME280;56604;48.652;9.194;2023-05-12T06:51:55;95962.09;;;12.21;84.93
69411;BME280;56604;48.652;9.194;2023-05-12T06:54:20;95968.16;;;12.11;86.05
69411;BME280;56604;48.652;9.194;2023-05-12T06:56:46;95965.75;;;12.20;84.96
69411;BME280;56604;48.652;9.194;2023-05-12T06:59:11;95967.59;;;12.25;83.31
69411;BME280;56604;48.652;9.194;2023-05-12T07:01:36;95960.75;;;12.24;83.96
69411;BME280;56604;48.652;9.194;2023-05-12T07:04:02;95965.72;;;12.51;84.17
69411;BME280;56604;48.652;9.194;2023-05-12T07:06:27;95970.69;;;12.68;82.02
69411;BME280;56604;48.652;9.194;2023-05-12T07:08:53;95968.97;;;13.02;81.36
69411;BME280;56604;48.652;9.194;2023-05-12T07:11:19;95961.09;;;12.92;80.42
69411;BME280;56604;48.652;9.194;2023-05-12T07:13:49;95962.13;;;12.96;79.87
69411;BME280;56604;48.652;9.194;2023-05-12T07:16:15;95964.78;;;12.96;81.16
69411;BME280;56604;48.652;9.194;2023-05-12T07:18:42;95963.34;;;13.14;78.85
69411;BME280;56604;48.652;9.194;2023-05-12T07:21:08;95964.22;;;13.04;81.17
69411;BME280;56604;48.652;9.194;2023-05-12T07:23:34;95971.06;;;13.05;82.88
69411;BME280;56604;48.652;9.194;2023-05-12T07:26:01;95968.31;;;13.31;81.90
69411;BME280;56604;48.652;9.194;2023-05-12T07:28:31;95980.06;;;12.94;80.96
69411;BME280;56604;48.652;9.194;2023-05-12T07:30:59;95980.44;;;12.72;81.28
69411;BME280;56604;48.652;9.194;2023-05-12T07:33:25;95972.25;;;12.69;83.14
69411;BME280;56604;48.652;9.194;2023-05-12T07:35:50;95968.03;;;12.63;80.88
69411;BME280;56604;48.652;9.194;2023-05-12T07:38:15;95970.13;;;12.81;79.63
69411;BME280;56604;48.652;9.194;2023-05-12T07:40:41;95968.38;;;13.21;81.08
69411;BME280;56604;48.652;9.194;2023-05-12T07:43:07;95965.28;;;13.53;78.72
69411;BME280;56604;48.652;9.194;2023-05-12T07:45:32;95962.69;;;13.82;79.16
69411;BME280;56604;48.652;9.194;2023-05-12T07:47:57;95965.56;;;14.20;78.58
69411;BME280;56604;48.652;9.194;2023-05-12T07:50:23;95959.16;;;14.79;73.92
69411;BME280;56604;48.652;9.194;2023-05-12T07:52:49;95967.19;;;15.17;72.54
69411;BME280;56604;48.652;9.194;2023-05-12T07:55:15;95961.81;;;15.22;70.48
69411;BME280;56604;48.652;9.194;2023-05-12T07:57:41;95954.59;;;15.47;70.70
69411;BME280;56604;48.652;9.194;2023-05-12T08:00:07;95964.59;;;15.31;71.14
69411;BME280;56604;48.652;9.194;2023-05-12T08:02:35;95960.03;;;15.18;71.48
69411;BME280;56604;48.652;9.194;2023-05-12T08:05:00;95960.59;;;15.52;71.05
69411;BME280;56604;48.652;9.194;2023-05-12T08:07:26;95964.84;;;15.72;67.90
69411;BME280;56604;48.652;9.194;2023-05-12T08:09:51;95960.25;;;15.59;66.63
69411;BME280;56604;48.652;9.194;2023-05-12T08:12:16;95966.88;;;15.00;66.72
69411;BME280;56604;48.652;9.194;2023-05-12T08:14:42;95958.81;;;15.29;68.87
69411;BME280;56604;48.652;9.194;2023-05-12T08:17:07;95971.41;;;15.18;69.51
69411;BME280;56604;48.652;9.194;2023-05-12T08:19:32;95967.75;;;15.14;68.75
69411;BME280;56604;48.652;9.194;2023-05-12T08:21:57;95967.09;;;15.22;68.77
69411;BME280;56604;48.652;9.194;2023-05-12T08:24:23;95970.19;;;14.62;69.19
69411;BME280;56604;48.652;9.194;2023-05-12T08:26:48;95966.88;;;14.52;70.91
69411;BME280;56604;48.652;9.194;2023-05-12T08:29:13;95966.03;;;14.27;72.87
69411;BME280;56604;48.652;9.194;2023-05-12T08:31:39;95969.75;;;15.03;68.44
69411;BME280;56604;48.652;9.194;2023-05-12T08:34:05;95976.41;;;14.48;70.64
69411;BME280;56604;48.652;9.194;2023-05-12T08:36:30;95981.28;;;14.35;72.31
69411;BME280;56604;48.652;9.194;2023-05-12T08:38:57;95971.66;;;14.74;69.01
69411;BME280;56604;48.652;9.194;2023-05-12T08:44:04;95971.66;;;14.98;71.87
69411;BME280;56604;48.652;9.194;2023-05-12T08:46:30;95975.28;;;15.45;66.53
69411;BME280;56604;48.652;9.194;2023-05-12T08:48:58;95977.34;;;15.48;65.08
69411;BME280;56604;48.652;9.194;2023-05-12T08:51:25;95974.31;;;15.60;66.42
69411;BME280;56604;48.652;9.194;2023-05-12T08:53:52;95988.44;;;14.88;68.04
69411;BME280;56604;48.652;9.194;2023-05-12T08:56:20;95983.22;;;15.26;70.85
69411;BME280;56604;48.652;9.194;2023-05-12T08:58:46;95981.94;;;15.42;68.17
69411;BME280;56604;48.652;9.194;2023-05-12T09:01:13;95975.28;;;15.45;66.36
69411;BME280;56604;48.652;9.194;2023-05-12T09:03:40;95974.59;;;15.77;66.68
69411;BME280;56604;48.652;9.194;2023-05-12T09:06:05;95974.66;;;15.72;66.17
69411;BME280;56604;48.652;9.194;2023-05-12T09:08:32;95977.34;;;15.48;66.69
69411;BME280;56604;48.652;9.194;2023-05-12T09:10:59;95977.44;;;15.43;68.31
69411;BME280;56604;48.652;9.194;2023-05-12T09:13:29;95970.91;;;15.92;68.95
69411;BME280;56604;48.652;9.194;2023-05-12T09:15:59;95981.34;;;15.69;66.32
69411;BME280;56604;48.652;9.194;2023-05-12T09:18:29;95980.81;;;15.48;65.34
69411;BME280;56604;48.652;9.194;2023-05-12T09:20:59;95976.03;;;16.02;66.24
69411;BME280;56604;48.652;9.194;2023-05-12T09:23:24;95967.19;;;16.26;65.43
69411;BME280;56604;48.652;9.194;2023-05-12T09:25:59;95980.63;;;17.17;64.79
69411;BME280;56604;48.652;9.194;2023-05-12T09:28:34;95975.72;;;16.83;64.55
69411;BME280;56604;48.652;9.194;2023-05-12T09:30:59;95976.78;;;16.54;63.19
69411;BME280;56604;48.652;9.194;2023-05-12T09:33:25;95976.94;;;16.44;63.48
69411;BME280;56604;48.652;9.194;2023-05-12T09:35:50;95971.16;;;16.70;62.75
69411;BME280;56604;48.652;9.194;2023-05-12T09:38:17;95968.53;;;17.25;61.22
69411;BME280;56604;48.652;9.194;2023-05-12T09:40:42;95970.03;;;17.03;61.05
69411;BME280;56604;48.652;9.194;2023-05-12T09:43:07;95972.75;;;17.26;61.21
69411;BME280;56604;48.652;9.194;2023-05-12T09:45:36;95973.22;;;16.73;61.81
69411;BME280;56604;48.652;9.194;2023-05-12T09:48:10;95975.50;;;17.21;58.87
69411;BME280;56604;48.652;9.194;2023-05-12T09:50:48;95963.13;;;17.52;58.88
69411;BME280;56604;48.652;9.194;2023-05-12T09:53:15;95975.66;;;17.38;58.65
69411;BME280;56604;48.652;9.194;2023-05-12T09:55:42;95976.25;;;17.49;61.24
69411;BME280;56604;48.652;9.194;2023-05-12T09:58:09;95969.31;;;17.62;59.92
69411;BME280;56604;48.652;9.194;2023-05-12T10:00:36;95975.72;;;17.11;58.73
69411;BME280;56604;48.652;9.194;2023-05-12T10:03:13;95965.78;;;17.16;61.17
69411;BME280;56604;48.652;9.194;2023-05-12T10:05:47;95970.19;;;16.66;62.01
69411;BME280;56604;48.652;9.194;2023-05-12T10:08:19;95970.66;;;16.07;61.78
69411;BME280;56604;48.652;9.194;2023-05-12T10:10:47;95975.00;;;16.63;60.75
69411;BME280;56604;48.652;9.194;2023-05-12T10:13:14;95971.91;;;16.29;60.24
69411;BME280;56604;48.652;9.194;2023-05-12T10:18:07;95967.72;;;16.55;61.93
69411;BME280;56604;48.652;9.194;2023-05-12T10:20:33;95977.66;;;16.63;62.07
69411;BME280;56604;48.652;9.194;2023-05-12T10:23:00;95976.03;;;16.35;60.86
69411;BME280;56604;48.652;9.194;2023-05-12T10:25:27;95968.97;;;16.44;61.88
69411;BME280;56604;48.652;9.194;2023-05-12T10:27:54;95982.75;;;15.81;62.41
69411;BME280;56604;48.652;9.194;2023-05-12T10:30:21;95967.34;;;16.15;62.95
69411;BME280;56604;48.652;9.194;2023-05-12T10:32:46;95963.75;;;16.39;62.98
69411;BME280;56604;48.652;9.194;2023-05-12T10:35:12;95961.53;;;16.46;64.06
69411;BME280;56604;48.652;9.194;2023-05-12T10:37:38;95975.16;;;16.26;61.50
69411;BME280;56604;48.652;9.194;2023-05-12T10:40:06;95967.00;;;16.36;65.19
69411;BME280;56604;48.652;9.194;2023-05-12T10:42:40;95968.41;;;16.61;62.73
69411;BME280;56604;48.652;9.194;2023-05-12T10:45:17;95966.25;;;16.49;62.68
69411;BME280;56604;48.652;9.194;2023-05-12T10:47:43;95965.53;;;15.97;61.68
69411;BME280;56604;48.652;9.194;2023-05-12T10:50:09;95974.38;;;15.73;63.11
69411;BME280;56604;48.652;9.194;2023-05-12T10:52:52;95974.94;;;15.51;64.63
69411;BME280;56604;48.652;9.194;2023-05-12T10:55:31;95968.53;;;15.34;65.54
69411;BME280;56604;48.652;9.194;2023-05-12T10:58:07;95972.06;;;15.29;65.67
69411;BME280;56604;48.652;9.194;2023-05-12T11:00:42;95969.38;;;15.10;67.15
69411;BME280;56604;48.652;9.194;2023-05-12T11:03:13;95976.91;;;15.03;66.87
69411;BME280;56604;48.652;9.194;2023-05-12T11:05:41;95982.81;;;14.95;66.26
69411;BME280;56604;48.652;9.194;2023-05-12T11:08:07;95977.06;;;14.88;65.73
69411;BME280;56604;48.652;9.194;2023-05-12T11:10:33;95989.91;;;14.75;65.59
69411;BME280;56604;48.652;9.194;2023-05-12T11:12:59;95979.75;;;14.82;65.58
69411;BME280;56604;48.652;9.194;2023-05-12T11:15:24;95977.38;;;15.29;65.88
69411;BME280;56604;48.652;9.194;2023-05-12T11:17:51;95977.28;;;15.53;67.40
69411;BME280;56604;48.652;9.194;2023-05-12T11:20:24;95982.75;;;15.43;65.52
69411;BME280;56604;48.652;9.194;2023-05-12T11:22:50;95974.25;;;15.03;69.19
69411;BME280;56604;48.652;9.194;2023-05-12T11:25:17;95989.88;;;15.23;67.65
69411;BME280;56604;48.652;9.194;2023-05-12T11:27:47;95983.81;;;14.99;66.53
69411;BME280;56604;48.652;9.194;2023-05-12T11:30:13;95995.19;;;14.99;67.18
69411;BME280;56604;48.652;9.194;2023-05-12T11:32:38;95993.28;;;14.81;68.42
69411;BME280;56604;48.652;9.194;2023-05-12T11:37:41;95999.22;;;13.75;78.35
69411;BME280;56604;48.652;9.194;2023-05-12T11:40:17;96009.44;;;13.42;81.36
69411;BME280;56604;48.652;9.194;2023-05-12T11:42:44;96016.13;;;13.24;81.40
69411;BME280;56604;48.652;9.194;2023-05-12T11:47:45;96001.41;;;13.63;82.73
69411;BME280;56604;48.652;9.194;2023-05-12T11:50:10;96008.66;;;13.42;84.18
69411;BME280;56604;48.652;9.194;2023-05-12T11:52:36;95996.66;;;13.60;81.76
69411;BME280;56604;48.652;9.194;2023-05-12T11:55:01;96002.41;;;13.72;82.41
69411;BME280;56604;48.652;9.194;2023-05-12T11:57:32;96003.84;;;13.54;82.05
69411;BME280;56604;48.652;9.194;2023-05-12T12:00:00;96007.41;;;13.73;82.08
69411;BME280;56604;48.652;9.194;2023-05-12T12:02:26;96006.63;;;13.73;81.62
69411;BME280;56604;48.652;9.194;2023-05-12T12:04:51;96016.19;;;13.69;80.33
69411;BME280;56604;48.652;9.194;2023-05-12T12:07:30;96008.38;;;13.88;80.77
69411;BME280;56604;48.652;9.194;2023-05-12T12:09:56;96001.38;;;14.07;80.18
69411;BME280;56604;48.652;9.194;2023-05-12T12:12:21;96006.31;;;14.14;77.05
69411;BME280;56604;48.652;9.194;2023-05-12T12:14:46;96006.16;;;14.00;78.14
69411;BME280;56604;48.652;9.194;2023-05-12T12:17:12;96010.72;;;14.29;80.08
69411;BME280;56604;48.652;9.194;2023-05-12T12:19:37;96003.66;;;14.19;77.75
69411;BME280;56604;48.652;9.194;2023-05-12T12:22:02;96007.13;;;14.14;76.17
69411;BME280;56604;48.652;9.194;2023-05-12T12:24:28;96012.00;;;14.31;78.79
69411;BME280;56604;48.652;9.194;2023-05-12T12:26:53;96015.34;;;14.71;76.42
69411;BME280;56604;48.652;9.194;2023-05-12T12:29:18;96012.44;;;14.44;76.32
69411;BME280;56604;48.652;9.194;2023-05-12T12:31:44;96008.31;;;15.10;74.43
69411;BME280;56604;48.652;9.194;2023-05-12T12:34:09;96009.72;;;15.45;75.75
69411;BME280;56604;48.652;9.194;2023-05-12T12:36:35;96008.81;;;15.55;71.78
69411;BME280;56604;48.652;9.194;2023-05-12T12:39:01;96009.09;;;15.53;71.92
69411;BME280;56604;48.652;9.194;2023-05-12T12:41:27;96020.56;;;15.05;71.37
69411;BME280;56604;48.652;9.194;2023-05-12T12:43:53;96011.19;;;15.13;73.14
69411;BME280;56604;48.652;9.194;2023-05-12T12:46:18;96011.53;;;14.82;73.50
69411;BME280;56604;48.652;9.194;2023-05-12T12:48:44;96010.28;;;14.99;73.37
69411;BME280;56604;48.652;9.194;2023-05-12T12:51:10;96013.78;;;15.18;71.81
69411;BME280;56604;48.652;9.194;2023-05-12T12:53:35;96013.63;;;15.10;74.04
69411;BME280;56604;48.652;9.194;2023-05-12T12:56:01;96018.22;;;15.23;73.71
69411;BME280;56604;48.652;9.194;2023-05-12T12:58:26;96020.84;;;15.47;74.01
69411;BME280;56604;48.652;9.194;2023-05-12T13:00:52;96023.69;;;15.32;72.00
69411;BME280;56604;48.652;9.194;2023-05-12T13:03:17;96018.97;;;15.04;71.21
69411;BME280;56604;48.652;9.194;2023-05-12T13:05:42;96021.78;;;15.13;70.71
69411;BME280;56604;48.652;9.194;2023-05-12T13:08:08;96017.63;;;15.07;72.34